createdAt,value
2023-05-20T00:01:51.021Z,7.32
2023-05-20T00:04:18.486Z,6.40
2023-05-20T00:06:45.850Z,5.47
2023-05-20T00:09:13.089Z,4.18
2023-05-20T00:11:40.212Z,3.90
2023-05-20T00:14:07.509Z,3.20
2023-05-20T00:16:34.934Z,4.38
2023-05-20T00:19:02.140Z,4.10
2023-05-20T00:21:29.840Z,3.53
2023-05-20T00:23:58.963Z,3.03
2023-05-20T00:26:26.941Z,3.10
2023-05-20T00:28:54.054Z,2.45
2023-05-20T00:31:21.805Z,2.00
2023-05-20T00:33:49.126Z,2.35
2023-05-20T00:36:16.195Z,2.33
2023-05-20T00:38:43.383Z,2.60
2023-05-20T00:41:11.212Z,2.88
2023-05-20T00:43:38.331Z,2.60
2023-05-20T00:46:05.532Z,2.88
2023-05-20T00:48:44.479Z,2.50
2023-05-20T00:51:14.708Z,2.83
2023-05-20T00:53:43.733Z,2.85
2023-05-20T00:56:12.131Z,2.70
2023-05-20T00:58:40.689Z,2.28
2023-05-20T01:01:07.874Z,2.08
2023-05-20T01:03:35.802Z,2.05
2023-05-20T01:06:03.765Z,2.15
2023-05-20T01:08:31.353Z,2.17
2023-05-20T01:11:20.746Z,2.05
2023-05-20T01:13:55.828Z,2.20
2023-05-20T01:16:25.192Z,2.17
2023-05-20T01:18:57.430Z,2.22
2023-05-20T01:21:27.572Z,2.10
2023-05-20T01:23:54.993Z,2.30
2023-05-20T01:26:22.260Z,2.28
2023-05-20T01:28:51.282Z,2.20
2023-05-20T01:31:25.053Z,1.90
2023-05-20T01:33:58.528Z,2.35
2023-05-20T01:36:28.681Z,2.17
2023-05-20T01:38:58.123Z,2.22
2023-05-20T01:41:27.413Z,1.67
2023-05-20T01:43:56.501Z,2.30
2023-05-20T01:46:23.658Z,1.85
2023-05-20T01:48:50.951Z,2.10
2023-05-20T01:51:18.063Z,1.83
2023-05-20T01:53:45.694Z,1.65
2023-05-20T01:56:13.402Z,1.85
2023-05-20T01:58:40.710Z,1.85
2023-05-20T02:01:07.756Z,1.98
2023-05-20T02:03:34.859Z,2.10
2023-05-20T02:06:02.055Z,1.92
2023-05-20T02:08:29.254Z,2.22
2023-05-20T02:10:56.256Z,1.83
2023-05-20T02:13:23.359Z,1.95
2023-05-20T02:15:51.916Z,1.88
2023-05-20T02:18:19.045Z,1.80
2023-05-20T02:20:49.693Z,1.65
2023-05-20T02:23:16.872Z,1.88
2023-05-20T02:25:44.425Z,1.70
2023-05-20T02:28:11.472Z,2.00
2023-05-20T02:30:39.447Z,2.20
2023-05-20T02:33:07.211Z,2.20
2023-05-20T02:35:34.889Z,2.03
2023-05-20T02:38:02.062Z,2.13
2023-05-20T02:40:29.127Z,2.17
2023-05-20T02:42:56.068Z,1.67
2023-05-20T02:45:23.048Z,1.98
2023-05-20T02:47:50.465Z,2.00
2023-05-20T02:50:17.854Z,2.15
2023-05-20T02:52:45.771Z,1.98
2023-05-20T02:55:13.026Z,2.05
2023-05-20T02:57:40.078Z,1.77
2023-05-20T03:00:13.374Z,1.73
2023-05-20T03:02:40.528Z,2.35
2023-05-20T03:05:08.230Z,1.98
2023-05-20T03:07:36.472Z,2.00
2023-05-20T03:10:05.027Z,2.10
2023-05-20T03:12:32.132Z,2.20
2023-05-20T03:15:00.358Z,2.10
2023-05-20T03:17:27.569Z,2.20
2023-05-20T03:19:54.609Z,2.78
2023-05-20T03:22:21.976Z,1.95
2023-05-20T03:24:49.081Z,1.63
2023-05-20T03:27:16.163Z,1.95
2023-05-20T03:29:43.271Z,2.13
2023-05-20T03:32:11.071Z,2.42
2023-05-20T03:34:38.465Z,2.00
2023-05-20T03:37:06.072Z,2.42
2023-05-20T03:39:33.134Z,2.47
2023-05-20T03:42:00.223Z,2.10
2023-05-20T03:44:27.338Z,2.28
2023-05-20T03:46:54.426Z,2.28
2023-05-20T03:49:21.897Z,2.00
2023-05-20T03:51:48.879Z,2.30
2023-05-20T03:54:17.509Z,2.15
2023-05-20T03:56:47.040Z,2.20
2023-05-20T03:59:14.025Z,2.38
2023-05-20T04:01:41.253Z,2.30
2023-05-20T04:04:08.613Z,2.40
2023-05-20T04:06:36.113Z,2.65
2023-05-20T04:09:03.771Z,2.42
2023-05-20T04:11:31.114Z,2.75
2023-05-20T04:14:00.480Z,2.90
2023-05-20T04:16:30.168Z,2.10
2023-05-20T04:18:59.335Z,2.25
2023-05-20T04:21:26.589Z,2.15
2023-05-20T04:23:53.624Z,2.50
2023-05-20T04:26:21.665Z,2.30
2023-05-20T04:28:49.788Z,2.40
2023-05-20T04:31:17.257Z,2.70
2023-05-20T04:33:44.642Z,3.67
2023-05-20T04:36:16.434Z,3.30
2023-05-20T04:38:44.773Z,2.97
2023-05-20T04:41:12.154Z,2.70
2023-05-20T04:43:40.494Z,2.42
2023-05-20T04:46:07.951Z,2.50
2023-05-20T04:48:35.416Z,2.45
2023-05-20T04:51:03.227Z,2.50
2023-05-20T04:53:33.977Z,2.40
2023-05-20T04:56:01.169Z,2.60
2023-05-20T04:58:30.244Z,2.40
2023-05-20T05:00:58.060Z,2.60
2023-05-20T05:03:25.032Z,2.70
2023-05-20T05:05:57.814Z,2.92
2023-05-20T05:08:26.988Z,3.20
2023-05-20T05:10:54.261Z,3.08
2023-05-20T05:13:21.318Z,2.83
2023-05-20T05:15:48.382Z,2.85
2023-05-20T05:18:18.799Z,3.15
2023-05-20T05:20:45.946Z,3.10
2023-05-20T05:23:13.196Z,2.80
2023-05-20T05:25:40.462Z,2.85
2023-05-20T05:28:07.500Z,2.88
2023-05-20T05:30:34.570Z,3.08
2023-05-20T05:33:01.832Z,2.90
2023-05-20T05:35:29.497Z,2.60
2023-05-20T05:37:57.012Z,2.70
2023-05-20T05:40:24.044Z,2.80
2023-05-20T05:42:51.248Z,3.10
2023-05-20T05:45:18.224Z,3.38
2023-05-20T05:47:46.075Z,3.05
2023-05-20T05:50:13.134Z,2.90
2023-05-20T05:52:40.170Z,3.10
2023-05-20T05:55:09.037Z,2.97
2023-05-20T05:57:36.247Z,2.88
2023-05-20T06:00:05.118Z,3.08
2023-05-20T06:02:36.522Z,2.95
2023-05-20T06:05:04.581Z,3.08
2023-05-20T06:07:31.962Z,3.80
2023-05-20T06:09:59.526Z,3.85
2023-05-20T06:12:29.565Z,3.45
2023-05-20T06:14:56.602Z,3.80
2023-05-20T06:17:23.858Z,3.65
2023-05-20T06:19:51.129Z,3.95
2023-05-20T06:22:18.166Z,3.47
2023-05-20T06:24:45.207Z,3.40
2023-05-20T06:27:12.673Z,3.33
2023-05-20T06:29:40.965Z,3.30
2023-05-20T06:32:10.235Z,2.80
2023-05-20T06:34:38.186Z,3.05
2023-05-20T06:37:05.966Z,3.10
2023-05-20T06:39:32.929Z,3.10
2023-05-20T06:42:02.997Z,3.10
2023-05-20T06:44:31.348Z,3.28
2023-05-20T06:46:58.455Z,3.42
2023-05-20T06:49:25.824Z,3.42
2023-05-20T06:51:52.848Z,3.03
2023-05-20T06:54:19.981Z,3.00
2023-05-20T06:56:47.029Z,3.00
2023-05-20T06:59:14.304Z,3.30
2023-05-20T07:01:41.624Z,2.78
2023-05-20T07:04:08.865Z,2.90
2023-05-20T07:06:36.201Z,2.95
2023-05-20T07:09:03.558Z,2.97
2023-05-20T07:11:30.726Z,2.80
2023-05-20T07:13:57.719Z,2.67
2023-05-20T07:16:24.953Z,2.50
2023-05-20T07:18:52.047Z,2.55
2023-05-20T07:21:19.333Z,3.05
2023-05-20T07:23:46.509Z,2.78
2023-05-20T07:26:13.687Z,2.90
2023-05-20T07:28:40.887Z,2.83
2023-05-20T07:31:11.748Z,3.22
2023-05-20T07:33:39.394Z,3.25
2023-05-20T07:36:08.019Z,2.53
2023-05-20T07:41:05.302Z,2.85
2023-05-20T07:43:32.524Z,2.70
2023-05-20T07:45:59.703Z,2.92
2023-05-20T07:48:27.387Z,3.03
2023-05-20T07:50:57.399Z,3.17
2023-05-20T07:53:24.432Z,3.17
2023-05-20T07:55:51.635Z,3.03
2023-05-20T07:58:18.745Z,2.83
2023-05-20T08:00:45.893Z,3.05
2023-05-20T08:03:14.266Z,3.03
2023-05-20T08:05:42.240Z,3.35
2023-05-20T08:08:10.661Z,3.40
2023-05-20T08:10:37.900Z,3.60
2023-05-20T08:13:05.237Z,3.90
2023-05-20T08:15:32.461Z,3.13
2023-05-20T08:17:59.670Z,3.42
2023-05-20T08:20:26.802Z,3.65
2023-05-20T08:22:53.882Z,3.75
2023-05-20T08:25:21.277Z,3.83
2023-05-20T08:27:48.372Z,3.75
2023-05-20T08:30:15.590Z,3.40
2023-05-20T08:32:42.839Z,3.58
2023-05-20T08:35:10.605Z,3.40
2023-05-20T08:37:37.877Z,4.13
2023-05-20T08:40:05.679Z,3.60
2023-05-20T08:42:32.695Z,3.80
2023-05-20T08:45:01.970Z,3.38
2023-05-20T08:47:29.313Z,3.95
2023-05-20T08:49:56.488Z,3.40
2023-05-20T08:52:24.882Z,3.47
2023-05-20T08:54:54.180Z,4.18
2023-05-20T08:57:22.488Z,3.92
2023-05-20T08:59:49.646Z,3.70
2023-05-20T09:02:16.886Z,3.35
2023-05-20T09:04:43.976Z,3.70
2023-05-20T09:07:11.251Z,3.70
2023-05-20T09:09:38.605Z,3.90
2023-05-20T09:12:06.256Z,3.35
2023-05-20T09:14:33.418Z,4.15
2023-05-20T09:17:00.688Z,5.63
2023-05-20T09:19:27.946Z,3.80
2023-05-20T09:21:55.548Z,3.30
2023-05-20T09:24:27.136Z,3.13
2023-05-20T09:26:54.552Z,3.95
2023-05-20T09:29:21.997Z,3.60
2023-05-20T09:31:50.596Z,3.58
2023-05-20T09:34:18.282Z,4.05
2023-05-20T09:36:45.960Z,4.30
2023-05-20T09:39:25.948Z,4.07
2023-05-20T09:42:10.146Z,3.92
2023-05-20T09:44:38.743Z,4.07
2023-05-20T09:47:08.817Z,4.55
2023-05-20T09:49:38.110Z,4.13
2023-05-20T09:52:06.269Z,3.67
2023-05-20T09:54:36.827Z,3.60
2023-05-20T09:57:05.892Z,4.65
2023-05-20T09:59:35.676Z,3.78
2023-05-20T10:02:03.217Z,3.65
2023-05-20T10:04:33.236Z,4.35
2023-05-20T10:07:00.804Z,4.90
2023-05-20T10:09:52.137Z,3.95
2023-05-20T10:12:38.418Z,3.83
2023-05-20T10:15:27.307Z,4.65
2023-05-20T10:18:16.589Z,4.15
2023-05-20T10:20:51.262Z,4.57
2023-05-20T10:23:29.057Z,3.80
2023-05-20T10:25:59.475Z,4.38
2023-05-20T10:28:38.533Z,3.53
2023-05-20T10:31:25.825Z,4.20
2023-05-20T10:33:54.567Z,4.00
2023-05-20T10:36:31.947Z,3.92
2023-05-20T10:39:00.901Z,4.20
2023-05-20T10:41:31.426Z,4.00
2023-05-20T10:44:05.322Z,4.20
2023-05-20T10:46:48.344Z,3.97
2023-05-20T10:49:25.195Z,3.63
2023-05-20T10:54:23.448Z,3.83
2023-05-20T10:56:54.515Z,3.63
2023-05-20T10:59:22.804Z,3.75
2023-05-20T11:01:50.445Z,3.72
2023-05-20T11:04:19.530Z,3.40
2023-05-20T11:06:57.753Z,3.60
2023-05-20T11:09:25.054Z,3.55
2023-05-20T11:11:54.207Z,3.50
2023-05-20T11:14:22.659Z,3.95
2023-05-20T11:16:54.597Z,3.90
2023-05-20T11:19:22.014Z,3.97
2023-05-20T11:21:49.587Z,3.67
2023-05-20T11:24:26.866Z,3.67
2023-05-20T11:26:58.194Z,4.10
2023-05-20T11:29:29.213Z,4.00
2023-05-20T11:32:09.327Z,3.85
2023-05-20T11:34:38.463Z,4.10
2023-05-20T11:37:11.673Z,3.85
2023-05-20T11:39:39.407Z,4.57
2023-05-20T11:42:06.696Z,4.30
2023-05-20T11:44:34.479Z,4.10
2023-05-20T11:47:04.251Z,3.90
2023-05-20T11:49:40.128Z,4.40
2023-05-20T11:52:10.841Z,4.20
2023-05-20T11:54:37.928Z,4.07
2023-05-20T11:57:06.962Z,3.95
2023-05-20T11:59:34.860Z,3.78
2023-05-20T12:02:02.011Z,3.75
2023-05-20T12:04:29.203Z,3.97
2023-05-20T12:06:58.387Z,3.90
2023-05-20T12:09:25.531Z,3.97
2023-05-20T12:11:52.598Z,3.90
2023-05-20T12:14:19.786Z,4.38
2023-05-20T12:16:46.934Z,4.00
2023-05-20T12:19:16.086Z,4.22
2023-05-20T12:21:43.206Z,4.60
2023-05-20T12:24:11.197Z,4.70
2023-05-20T12:26:40.481Z,4.07
2023-05-20T12:29:07.960Z,4.20
2023-05-20T12:31:35.412Z,4.57
2023-05-20T12:34:03.360Z,4.55
2023-05-20T12:36:30.714Z,4.20
2023-05-20T12:38:57.722Z,4.32
2023-05-20T12:41:24.946Z,4.10
2023-05-20T12:43:52.626Z,3.97
2023-05-20T12:46:19.738Z,4.60
2023-05-20T12:48:47.070Z,4.00
2023-05-20T12:51:14.157Z,4.50
2023-05-20T12:53:41.207Z,4.22
2023-05-20T12:56:08.637Z,4.10
2023-05-20T12:58:36.283Z,4.53
2023-05-20T13:01:03.454Z,4.13
2023-05-20T13:03:30.901Z,4.07
2023-05-20T13:05:59.475Z,4.30
2023-05-20T13:08:28.451Z,5.28
2023-05-20T13:10:56.000Z,4.65
2023-05-20T13:13:23.855Z,4.45
2023-05-20T13:15:51.424Z,4.53
2023-05-20T13:18:19.400Z,4.55
2023-05-20T13:20:46.693Z,6.00
2023-05-20T13:23:13.882Z,4.65
2023-05-20T13:25:41.213Z,4.68
2023-05-20T13:28:10.341Z,4.80
2023-05-20T13:30:38.243Z,4.50
2023-05-20T13:33:05.695Z,9.07
2023-05-20T13:35:32.840Z,5.85
2023-05-20T13:37:59.871Z,11.20
2023-05-20T13:40:26.944Z,5.10
2023-05-20T13:42:54.627Z,5.00
2023-05-20T13:45:23.888Z,5.30
2023-05-20T13:47:51.423Z,4.38
2023-05-20T13:50:18.624Z,5.25
2023-05-20T13:52:45.827Z,5.03
2023-05-20T13:55:13.229Z,5.32
2023-05-20T13:57:40.391Z,4.80
2023-05-20T14:00:08.510Z,4.68
2023-05-20T14:02:35.966Z,5.15
2023-05-20T14:05:03.370Z,4.70
2023-05-20T14:07:30.526Z,4.65
2023-05-20T14:10:02.709Z,4.90
2023-05-20T14:12:30.012Z,4.93
2023-05-20T14:14:58.396Z,5.00
2023-05-20T14:17:26.060Z,4.80
2023-05-20T14:19:53.217Z,4.65
2023-05-20T14:22:20.879Z,4.68
2023-05-20T14:24:47.970Z,5.18
2023-05-20T14:27:15.278Z,5.90
2023-05-20T14:29:42.462Z,6.70
2023-05-20T14:32:11.548Z,5.60
2023-05-20T14:34:39.058Z,5.85
2023-05-20T14:37:09.843Z,6.65
2023-05-20T14:39:37.476Z,5.90
2023-05-20T14:42:05.638Z,6.40
2023-05-20T14:44:32.820Z,5.30
2023-05-20T14:46:59.887Z,4.35
2023-05-20T14:49:27.240Z,8.85
2023-05-20T14:51:54.749Z,6.20
2023-05-20T14:54:25.142Z,5.90
2023-05-20T14:56:52.429Z,6.07
2023-05-20T14:59:19.620Z,52.22
2023-05-20T15:01:46.730Z,11.98
2023-05-20T15:04:14.022Z,7.72
2023-05-20T15:06:41.686Z,9.82
2023-05-20T15:09:08.959Z,9.38
2023-05-20T15:11:36.530Z,7.97
2023-05-20T15:14:03.766Z,8.98
2023-05-20T15:16:33.512Z,8.93
2023-05-20T15:19:02.070Z,6.38
2023-05-20T15:21:29.831Z,6.20
2023-05-20T15:23:57.393Z,8.07
2023-05-20T15:26:26.275Z,6.45
2023-05-20T15:28:53.502Z,5.38
2023-05-20T15:31:20.840Z,6.07
2023-05-20T15:33:48.121Z,5.00
2023-05-20T15:36:15.585Z,4.65
2023-05-20T15:38:44.390Z,5.55
2023-05-20T15:41:13.636Z,5.43
2023-05-20T15:43:41.181Z,5.00
2023-05-20T15:46:08.526Z,4.90
2023-05-20T15:48:37.856Z,5.25
2023-05-20T15:51:05.759Z,5.38
2023-05-20T15:53:33.190Z,5.78
2023-05-20T15:56:00.348Z,5.95
2023-05-20T15:58:29.017Z,10.93
2023-05-20T16:00:56.532Z,4.80
2023-05-20T16:03:24.079Z,5.10
2023-05-20T16:05:52.371Z,5.15
2023-05-20T16:08:21.064Z,5.35
2023-05-20T16:10:48.108Z,5.60
2023-05-20T16:13:15.534Z,5.65
2023-05-20T16:15:42.629Z,5.88
2023-05-20T16:18:09.775Z,5.18
2023-05-20T16:20:36.943Z,5.90
2023-05-20T16:23:05.393Z,5.43
2023-05-20T16:25:32.590Z,5.30
2023-05-20T16:28:01.039Z,7.43
2023-05-20T16:30:29.503Z,5.85
2023-05-20T16:32:56.891Z,8.40
2023-05-20T16:35:24.101Z,6.70
2023-05-20T16:37:51.075Z,6.72
2023-05-20T16:40:18.231Z,6.57
2023-05-20T16:42:45.517Z,7.15
2023-05-20T16:45:12.703Z,8.25
2023-05-20T16:47:39.807Z,7.10
2023-05-20T16:50:07.897Z,6.38
2023-05-20T16:52:38.142Z,6.68
2023-05-20T16:55:08.197Z,6.88
2023-05-20T16:57:36.353Z,6.50
2023-05-20T17:00:08.251Z,5.75
2023-05-20T17:02:36.275Z,5.40
2023-05-20T17:05:04.451Z,5.28
2023-05-20T17:07:32.036Z,5.90
2023-05-20T17:09:59.437Z,5.13
2023-05-20T17:12:26.533Z,5.65
2023-05-20T17:14:54.679Z,5.47
2023-05-20T17:17:23.057Z,4.72
2023-05-20T17:19:50.292Z,4.90
2023-05-20T17:22:18.205Z,5.78
2023-05-20T17:24:45.552Z,4.85
2023-05-20T17:27:12.533Z,4.97
2023-05-20T17:29:39.673Z,5.00
2023-05-20T17:32:07.345Z,5.15
2023-05-20T17:34:34.488Z,5.13
2023-05-20T17:37:02.182Z,4.80
2023-05-20T17:39:29.704Z,5.82
2023-05-20T17:41:56.899Z,5.35
2023-05-20T17:44:25.663Z,5.63
2023-05-20T17:46:52.771Z,6.63
2023-05-20T17:49:19.837Z,7.75
2023-05-20T17:51:49.298Z,5.70
2023-05-20T17:54:16.758Z,5.03
2023-05-20T17:56:45.439Z,7.32
2023-05-20T17:59:12.573Z,5.50
2023-05-20T18:01:39.834Z,6.25
2023-05-20T18:04:07.856Z,7.93
2023-05-20T18:06:36.502Z,8.35
2023-05-20T18:09:06.031Z,11.13
2023-05-20T18:11:35.030Z,26.98
2023-05-20T18:14:02.965Z,12.05
2023-05-20T18:16:31.505Z,11.70
2023-05-20T18:18:58.957Z,7.97
2023-05-20T18:21:26.587Z,8.18
2023-05-20T18:23:53.720Z,9.25
2023-05-20T18:26:21.696Z,7.57
2023-05-20T18:28:49.948Z,6.28
2023-05-20T18:31:17.544Z,6.18
2023-05-20T18:33:44.655Z,6.32
2023-05-20T18:36:12.008Z,6.93
2023-05-20T18:38:41.349Z,7.05
2023-05-20T18:41:09.349Z,10.70
2023-05-20T18:43:36.681Z,7.00
2023-05-20T18:46:04.460Z,7.60
2023-05-20T18:48:32.044Z,7.70
2023-05-20T18:50:59.532Z,6.13
2023-05-20T18:53:26.802Z,8.15
2023-05-20T18:55:54.101Z,8.27
2023-05-20T18:58:22.356Z,6.93
2023-05-20T19:00:49.649Z,6.93
2023-05-20T19:03:17.239Z,7.25
2023-05-20T19:05:44.354Z,8.23
2023-05-20T19:08:11.926Z,11.73
2023-05-20T19:10:39.562Z,15.10
2023-05-20T19:13:06.707Z,11.23
2023-05-20T19:15:34.755Z,7.85
2023-05-20T19:18:02.138Z,8.55
2023-05-20T19:20:29.377Z,9.43
2023-05-20T19:22:56.537Z,8.10
2023-05-20T19:25:23.851Z,9.90
2023-05-20T19:27:51.258Z,9.93
2023-05-20T19:30:18.355Z,12.77
2023-05-20T19:32:45.542Z,8.82
2023-05-20T19:35:12.692Z,7.85
2023-05-20T19:37:39.893Z,7.82
2023-05-20T19:40:08.089Z,6.68
2023-05-20T19:42:35.733Z,7.07
2023-05-20T19:45:02.964Z,6.82
2023-05-20T19:47:30.568Z,7.95
2023-05-20T19:49:57.779Z,7.38
2023-05-20T19:52:25.160Z,12.23
2023-05-20T19:54:52.291Z,11.85
2023-05-20T19:57:19.374Z,8.27
2023-05-20T19:59:47.766Z,9.25
2023-05-20T20:02:14.985Z,8.00
2023-05-20T20:04:42.324Z,9.25
2023-05-20T20:07:09.537Z,7.65
2023-05-20T20:09:36.923Z,8.60
2023-05-20T20:12:05.356Z,7.93
2023-05-20T20:14:33.026Z,8.60
2023-05-20T20:17:00.522Z,6.47
2023-05-20T20:19:28.671Z,6.82
2023-05-20T20:21:56.720Z,6.50
2023-05-20T20:24:24.237Z,6.72
2023-05-20T20:26:54.189Z,7.18
2023-05-20T20:29:24.758Z,6.80
2023-05-20T20:31:52.446Z,6.70
2023-05-20T20:34:19.534Z,6.85
2023-05-20T20:36:47.243Z,7.47
2023-05-20T20:39:19.197Z,6.95
2023-05-20T20:41:50.636Z,6.70
2023-05-20T20:44:21.091Z,6.40
2023-05-20T20:46:52.363Z,6.43
2023-05-20T20:49:21.341Z,6.80
2023-05-20T20:51:51.900Z,7.10
2023-05-20T20:54:19.003Z,6.55
2023-05-20T20:56:47.242Z,6.80
2023-05-20T20:59:15.870Z,6.80
2023-05-20T21:01:45.371Z,6.90
2023-05-20T21:04:14.436Z,7.05
2023-05-20T21:06:42.791Z,6.60
2023-05-20T21:09:09.810Z,8.75
2023-05-20T21:11:42.452Z,9.07
2023-05-20T21:14:10.423Z,7.10
2023-05-20T21:16:38.045Z,6.57
2023-05-20T21:19:06.140Z,6.88
2023-05-20T21:21:33.326Z,6.88
2023-05-20T21:24:00.634Z,6.57
2023-05-20T21:26:27.662Z,6.60
2023-05-20T21:28:54.958Z,6.50
2023-05-20T21:31:22.115Z,6.35
2023-05-20T21:33:49.200Z,6.40
2023-05-20T21:36:16.450Z,6.30
2023-05-20T21:38:43.592Z,6.72
2023-05-20T21:41:10.830Z,6.25
2023-05-20T21:43:37.827Z,6.80
2023-05-20T21:46:06.179Z,6.32
2023-05-20T21:48:33.189Z,7.28
2023-05-20T21:51:00.890Z,7.75
2023-05-20T21:53:27.873Z,8.85
2023-05-20T21:55:55.056Z,8.93
2023-05-20T21:58:22.091Z,6.63
2023-05-20T22:00:49.390Z,6.78
2023-05-20T22:03:16.564Z,7.43
2023-05-20T22:05:46.351Z,6.60
2023-05-20T22:08:14.160Z,6.45
2023-05-20T22:10:41.603Z,5.85
2023-05-20T22:13:11.123Z,6.28
2023-05-20T22:15:38.283Z,6.15
2023-05-20T22:18:07.645Z,6.65
2023-05-20T22:20:35.135Z,6.70
2023-05-20T22:23:04.616Z,7.60
2023-05-20T22:25:32.327Z,7.45
2023-05-20T22:27:59.327Z,7.47
2023-05-20T22:30:26.459Z,7.38
2023-05-20T22:32:53.592Z,6.97
2023-05-20T22:35:23.949Z,7.90
2023-05-20T22:37:51.223Z,8.05
2023-05-20T22:40:18.363Z,7.30
2023-05-20T22:42:45.962Z,8.40
2023-05-20T22:45:13.099Z,10.40
2023-05-20T22:47:40.113Z,9.13
2023-05-20T22:50:08.895Z,10.65
2023-05-20T22:52:36.966Z,9.85
2023-05-20T22:55:04.363Z,10.45
2023-05-20T22:57:31.405Z,9.27
2023-05-20T22:59:58.676Z,8.23
2023-05-20T23:02:26.096Z,7.90
2023-05-20T23:04:53.435Z,10.13
2023-05-20T23:07:21.920Z,9.30
2023-05-20T23:09:49.212Z,9.13
2023-05-20T23:12:16.637Z,9.00
2023-05-20T23:14:43.635Z,8.63
2023-05-20T23:17:10.851Z,8.35
2023-05-20T23:19:37.954Z,8.02
2023-05-20T23:22:05.416Z,8.82
2023-05-20T23:24:32.410Z,8.38
2023-05-20T23:27:00.184Z,7.93
2023-05-20T23:29:27.343Z,9.80
2023-05-20T23:31:54.395Z,9.07
2023-05-20T23:34:22.008Z,8.20
2023-05-20T23:36:50.193Z,8.80
2023-05-20T23:39:18.548Z,8.70
2023-05-20T23:41:45.710Z,9.70
2023-05-20T23:44:12.691Z,10.30
2023-05-20T23:46:39.990Z,9.27
2023-05-20T23:49:10.286Z,8.75
2023-05-20T23:51:37.332Z,9.32
2023-05-20T23:54:04.662Z,8.43
2023-05-20T23:56:31.809Z,9.65
2023-05-20T23:58:59.020Z,10.85
